sensor_id;sensor_type;location;lat;lon;timestamp;P1;durP1;ratioP1;P2;durP2;ratioP2
15071;SDS011;7635;56.696;13.002;2022-08-19T00:01:12;6.22;;;5.63;;
15071;SDS011;7635;56.696;13.002;2022-08-19T00:03:39;5.55;;;4.95;;
15071;SDS011;7635;56.696;13.002;2022-08-19T00:06:07;7.50;;;5.43;;
15071;SDS011;7635;56.696;13.002;2022-08-19T00:08:34;9.13;;;5.20;;
15071;SDS011;7635;56.696;13.002;2022-08-19T00:11:01;5.57;;;5.05;;
15071;SDS011;7635;56.696;13.002;2022-08-19T00:13:28;9.38;;;6.47;;
15071;SDS011;7635;56.696;13.002;2022-08-19T00:15:55;6.57;;;5.90;;
15071;SDS011;7635;56.696;13.002;2022-08-19T00:18:23;6.47;;;5.53;;
15071;SDS011;7635;56.696;13.002;2022-08-19T00:20:50;6.10;;;5.50;;
15071;SDS011;7635;56.696;13.002;2022-08-19T00:23:19;6.28;;;5.00;;
15071;SDS011;7635;56.696;13.002;2022-08-19T00:25:45;6.47;;;5.75;;
15071;SDS011;7635;56.696;13.002;2022-08-19T00:28:12;5.55;;;4.85;;
15071;SDS011;7635;56.696;13.002;2022-08-19T00:30:39;5.80;;;5.20;;
15071;SDS011;7635;56.696;13.002;2022-08-19T00:33:06;5.40;;;4.90;;
15071;SDS011;7635;56.696;13.002;2022-08-19T00:35:33;8.60;;;5.82;;
15071;SDS011;7635;56.696;13.002;2022-08-19T00:38:00;5.63;;;5.13;;
15071;SDS011;7635;56.696;13.002;2022-08-19T00:40:28;7.07;;;6.00;;
15071;SDS011;7635;56.696;13.002;2022-08-19T00:42:55;7.47;;;5.63;;
15071;SDS011;7635;56.696;13.002;2022-08-19T00:45:23;7.38;;;6.18;;
15071;SDS011;7635;56.696;13.002;2022-08-19T00:47:51;5.68;;;5.18;;
15071;SDS011;7635;56.696;13.002;2022-08-19T00:50:18;7.72;;;5.78;;
15071;SDS011;7635;56.696;13.002;2022-08-19T00:52:47;6.40;;;5.25;;
15071;SDS011;7635;56.696;13.002;2022-08-19T00:55:18;6.18;;;5.57;;
15071;SDS011;7635;56.696;13.002;2022-08-19T00:57:49;9.85;;;6.70;;
15071;SDS011;7635;56.696;13.002;2022-08-19T01:00:22;9.38;;;5.72;;
15071;SDS011;7635;56.696;13.002;2022-08-19T01:02:51;6.78;;;6.15;;
15071;SDS011;7635;56.696;13.002;2022-08-19T01:05:19;7.38;;;6.05;;
15071;SDS011;7635;56.696;13.002;2022-08-19T01:07:48;7.25;;;6.18;;
15071;SDS011;7635;56.696;13.002;2022-08-19T01:10:17;6.68;;;5.70;;
15071;SDS011;7635;56.696;13.002;2022-08-19T01:12:48;6.68;;;5.78;;
15071;SDS011;7635;56.696;13.002;2022-08-19T01:15:17;7.13;;;5.97;;
15071;SDS011;7635;56.696;13.002;2022-08-19T01:17:46;7.68;;;5.95;;
15071;SDS011;7635;56.696;13.002;2022-08-19T01:20:15;7.85;;;6.65;;
15071;SDS011;7635;56.696;13.002;2022-08-19T01:22:46;8.63;;;6.50;;
15071;SDS011;7635;56.696;13.002;2022-08-19T01:25:15;7.75;;;6.40;;
15071;SDS011;7635;56.696;13.002;2022-08-19T01:27:45;7.97;;;6.70;;
15071;SDS011;7635;56.696;13.002;2022-08-19T01:30:15;6.13;;;5.53;;
15071;SDS011;7635;56.696;13.002;2022-08-19T01:32:44;7.47;;;6.13;;
15071;SDS011;7635;56.696;13.002;2022-08-19T01:35:11;10.05;;;6.45;;
15071;SDS011;7635;56.696;13.002;2022-08-19T01:37:43;8.13;;;6.50;;
15071;SDS011;7635;56.696;13.002;2022-08-19T01:40:16;10.88;;;7.13;;
15071;SDS011;7635;56.696;13.002;2022-08-19T01:42:45;9.82;;;6.88;;
15071;SDS011;7635;56.696;13.002;2022-08-19T01:45:12;8.02;;;6.22;;
15071;SDS011;7635;56.696;13.002;2022-08-19T01:47:39;8.52;;;6.43;;
15071;SDS011;7635;56.696;13.002;2022-08-19T01:50:07;9.00;;;7.30;;
15071;SDS011;7635;56.696;13.002;2022-08-19T01:52:36;13.00;;;7.70;;
15071;SDS011;7635;56.696;13.002;2022-08-19T01:55:05;9.48;;;7.13;;
15071;SDS011;7635;56.696;13.002;2022-08-19T01:57:34;9.93;;;7.70;;
15071;SDS011;7635;56.696;13.002;2022-08-19T02:00:01;9.45;;;7.38;;
15071;SDS011;7635;56.696;13.002;2022-08-19T02:02:30;9.48;;;6.65;;
15071;SDS011;7635;56.696;13.002;2022-08-19T02:04:57;8.45;;;7.55;;
15071;SDS011;7635;56.696;13.002;2022-08-19T02:07:24;9.75;;;7.13;;
15071;SDS011;7635;56.696;13.002;2022-08-19T02:09:53;10.95;;;8.10;;
15071;SDS011;7635;56.696;13.002;2022-08-19T02:12:21;9.77;;;7.57;;
15071;SDS011;7635;56.696;13.002;2022-08-19T02:14:48;10.30;;;8.40;;
15071;SDS011;7635;56.696;13.002;2022-08-19T02:17:15;11.30;;;8.18;;
15071;SDS011;7635;56.696;13.002;2022-08-19T02:19:43;13.07;;;8.48;;
15071;SDS011;7635;56.696;13.002;2022-08-19T02:22:09;9.32;;;7.72;;
15071;SDS011;7635;56.696;13.002;2022-08-19T02:24:36;11.30;;;8.30;;
15071;SDS011;7635;56.696;13.002;2022-08-19T02:27:03;12.00;;;8.55;;
15071;SDS011;7635;56.696;13.002;2022-08-19T02:29:32;8.13;;;6.97;;
15071;SDS011;7635;56.696;13.002;2022-08-19T02:31:58;11.93;;;7.85;;
15071;SDS011;7635;56.696;13.002;2022-08-19T02:34:25;12.57;;;7.78;;
15071;SDS011;7635;56.696;13.002;2022-08-19T02:36:52;10.88;;;8.07;;
15071;SDS011;7635;56.696;13.002;2022-08-19T02:39:19;9.48;;;7.47;;
15071;SDS011;7635;56.696;13.002;2022-08-19T02:41:44;10.60;;;8.77;;
15071;SDS011;7635;56.696;13.002;2022-08-19T02:44:11;10.93;;;8.38;;
15071;SDS011;7635;56.696;13.002;2022-08-19T02:46:39;11.55;;;8.73;;
15071;SDS011;7635;56.696;13.002;2022-08-19T02:49:06;13.27;;;8.82;;
15071;SDS011;7635;56.696;13.002;2022-08-19T02:51:34;12.00;;;8.75;;
15071;SDS011;7635;56.696;13.002;2022-08-19T02:54:04;10.07;;;7.97;;
15071;SDS011;7635;56.696;13.002;2022-08-19T02:56:34;10.90;;;8.63;;
15071;SDS011;7635;56.696;13.002;2022-08-19T02:59:01;11.25;;;7.63;;
15071;SDS011;7635;56.696;13.002;2022-08-19T03:01:39;11.25;;;8.43;;
15071;SDS011;7635;56.696;13.002;2022-08-19T03:04:09;13.20;;;8.43;;
15071;SDS011;7635;56.696;13.002;2022-08-19T03:06:38;14.80;;;9.02;;
15071;SDS011;7635;56.696;13.002;2022-08-19T03:09:05;10.55;;;8.23;;
15071;SDS011;7635;56.696;13.002;2022-08-19T03:11:33;11.52;;;8.43;;
15071;SDS011;7635;56.696;13.002;2022-08-19T03:14:00;13.00;;;9.15;;
15071;SDS011;7635;56.696;13.002;2022-08-19T03:16:29;13.90;;;9.68;;
15071;SDS011;7635;56.696;13.002;2022-08-19T03:18:59;11.73;;;8.50;;
15071;SDS011;7635;56.696;13.002;2022-08-19T03:21:28;11.07;;;8.13;;
15071;SDS011;7635;56.696;13.002;2022-08-19T03:23:57;12.52;;;8.98;;
15071;SDS011;7635;56.696;13.002;2022-08-19T03:26:25;14.02;;;9.35;;
15071;SDS011;7635;56.696;13.002;2022-08-19T03:28:52;13.57;;;9.05;;
15071;SDS011;7635;56.696;13.002;2022-08-19T03:31:20;11.82;;;8.63;;
15071;SDS011;7635;56.696;13.002;2022-08-19T03:33:47;10.00;;;8.07;;
15071;SDS011;7635;56.696;13.002;2022-08-19T03:36:17;12.05;;;8.20;;
15071;SDS011;7635;56.696;13.002;2022-08-19T03:38:46;10.40;;;8.18;;
15071;SDS011;7635;56.696;13.002;2022-08-19T03:41:15;10.93;;;8.35;;
15071;SDS011;7635;56.696;13.002;2022-08-19T03:43:44;13.05;;;9.57;;
15071;SDS011;7635;56.696;13.002;2022-08-19T03:46:12;14.68;;;9.55;;
15071;SDS011;7635;56.696;13.002;2022-08-19T03:48:41;12.38;;;9.35;;
15071;SDS011;7635;56.696;13.002;2022-08-19T03:51:16;11.55;;;9.02;;
15071;SDS011;7635;56.696;13.002;2022-08-19T03:53:44;11.15;;;8.43;;
15071;SDS011;7635;56.696;13.002;2022-08-19T03:56:12;10.98;;;8.43;;
15071;SDS011;7635;56.696;13.002;2022-08-19T03:58:40;13.88;;;9.00;;
15071;SDS011;7635;56.696;13.002;2022-08-19T04:01:08;13.45;;;9.05;;
15071;SDS011;7635;56.696;13.002;2022-08-19T04:03:37;13.38;;;9.45;;
15071;SDS011;7635;56.696;13.002;2022-08-19T04:06:09;13.50;;;9.25;;
15071;SDS011;7635;56.696;13.002;2022-08-19T04:08:39;12.82;;;9.48;;
15071;SDS011;7635;56.696;13.002;2022-08-19T04:11:07;16.10;;;9.35;;
15071;SDS011;7635;56.696;13.002;2022-08-19T04:13:34;14.32;;;9.80;;
15071;SDS011;7635;56.696;13.002;2022-08-19T04:16:01;16.00;;;10.73;;
15071;SDS011;7635;56.696;13.002;2022-08-19T04:18:29;13.50;;;9.23;;
15071;SDS011;7635;56.696;13.002;2022-08-19T04:20:56;14.20;;;8.68;;
15071;SDS011;7635;56.696;13.002;2022-08-19T04:23:23;12.38;;;8.75;;
15071;SDS011;7635;56.696;13.002;2022-08-19T04:25:51;14.65;;;9.88;;
15071;SDS011;7635;56.696;13.002;2022-08-19T04:28:18;16.08;;;10.27;;
15071;SDS011;7635;56.696;13.002;2022-08-19T04:30:47;13.80;;;9.98;;
15071;SDS011;7635;56.696;13.002;2022-08-19T04:33:16;13.45;;;9.50;;
15071;SDS011;7635;56.696;13.002;2022-08-19T04:35:47;13.45;;;9.13;;
15071;SDS011;7635;56.696;13.002;2022-08-19T04:38:15;14.20;;;10.02;;
15071;SDS011;7635;56.696;13.002;2022-08-19T04:40:43;17.83;;;10.45;;
15071;SDS011;7635;56.696;13.002;2022-08-19T04:43:31;14.63;;;9.45;;
15071;SDS011;7635;56.696;13.002;2022-08-19T04:46:03;16.52;;;10.35;;
15071;SDS011;7635;56.696;13.002;2022-08-19T04:48:31;16.40;;;10.45;;
15071;SDS011;7635;56.696;13.002;2022-08-19T04:50:58;16.67;;;9.48;;
15071;SDS011;7635;56.696;13.002;2022-08-19T04:53:25;17.38;;;9.63;;
15071;SDS011;7635;56.696;13.002;2022-08-19T04:55:53;17.75;;;10.85;;
15071;SDS011;7635;56.696;13.002;2022-08-19T04:58:21;14.25;;;9.40;;
15071;SDS011;7635;56.696;13.002;2022-08-19T05:00:49;15.95;;;10.00;;
15071;SDS011;7635;56.696;13.002;2022-08-19T05:03:16;13.65;;;9.20;;
15071;SDS011;7635;56.696;13.002;2022-08-19T05:05:43;16.70;;;9.88;;
15071;SDS011;7635;56.696;13.002;2022-08-19T05:08:13;14.45;;;9.68;;
15071;SDS011;7635;56.696;13.002;2022-08-19T05:10:44;15.43;;;9.90;;
15071;SDS011;7635;56.696;13.002;2022-08-19T05:13:12;17.02;;;10.70;;
15071;SDS011;7635;56.696;13.002;2022-08-19T05:15:39;14.27;;;9.82;;
15071;SDS011;7635;56.696;13.002;2022-08-19T05:18:07;14.93;;;9.93;;
15071;SDS011;7635;56.696;13.002;2022-08-19T05:20:52;16.40;;;9.98;;
15071;SDS011;7635;56.696;13.002;2022-08-19T05:23:36;17.45;;;10.85;;
15071;SDS011;7635;56.696;13.002;2022-08-19T05:26:03;14.82;;;9.38;;
15071;SDS011;7635;56.696;13.002;2022-08-19T05:28:31;14.75;;;9.90;;
15071;SDS011;7635;56.696;13.002;2022-08-19T05:30:57;14.77;;;9.88;;
15071;SDS011;7635;56.696;13.002;2022-08-19T05:33:28;15.52;;;9.68;;
15071;SDS011;7635;56.696;13.002;2022-08-19T05:35:56;16.20;;;9.10;;
15071;SDS011;7635;56.696;13.002;2022-08-19T05:38:23;14.75;;;9.57;;
15071;SDS011;7635;56.696;13.002;2022-08-19T05:40:51;14.52;;;9.32;;
15071;SDS011;7635;56.696;13.002;2022-08-19T05:43:18;16.63;;;10.88;;
15071;SDS011;7635;56.696;13.002;2022-08-19T05:45:45;14.23;;;9.70;;
15071;SDS011;7635;56.696;13.002;2022-08-19T05:48:12;15.60;;;10.00;;
15071;SDS011;7635;56.696;13.002;2022-08-19T05:50:41;15.23;;;9.43;;
15071;SDS011;7635;56.696;13.002;2022-08-19T05:53:09;18.55;;;11.25;;
15071;SDS011;7635;56.696;13.002;2022-08-19T05:55:37;16.75;;;9.90;;
15071;SDS011;7635;56.696;13.002;2022-08-19T05:58:04;14.27;;;10.18;;
15071;SDS011;7635;56.696;13.002;2022-08-19T06:00:32;12.93;;;9.18;;
15071;SDS011;7635;56.696;13.002;2022-08-19T06:02:59;16.83;;;10.82;;
15071;SDS011;7635;56.696;13.002;2022-08-19T06:05:28;16.67;;;11.00;;
15071;SDS011;7635;56.696;13.002;2022-08-19T06:07:56;19.50;;;11.88;;
15071;SDS011;7635;56.696;13.002;2022-08-19T06:10:24;16.52;;;10.88;;
15071;SDS011;7635;56.696;13.002;2022-08-19T06:12:52;17.63;;;10.63;;
15071;SDS011;7635;56.696;13.002;2022-08-19T06:15:18;16.60;;;11.30;;
15071;SDS011;7635;56.696;13.002;2022-08-19T06:17:47;15.75;;;10.75;;
15071;SDS011;7635;56.696;13.002;2022-08-19T06:20:14;18.23;;;11.48;;
15071;SDS011;7635;56.696;13.002;2022-08-19T06:22:43;17.63;;;10.80;;
15071;SDS011;7635;56.696;13.002;2022-08-19T06:25:14;18.05;;;10.95;;
15071;SDS011;7635;56.696;13.002;2022-08-19T06:27:42;16.88;;;10.30;;
15071;SDS011;7635;56.696;13.002;2022-08-19T06:30:09;17.73;;;10.57;;
15071;SDS011;7635;56.696;13.002;2022-08-19T06:32:37;17.20;;;11.00;;
15071;SDS011;7635;56.696;13.002;2022-08-19T06:35:04;17.25;;;11.52;;
15071;SDS011;7635;56.696;13.002;2022-08-19T06:37:32;18.88;;;11.90;;
15071;SDS011;7635;56.696;13.002;2022-08-19T06:39:59;16.30;;;10.48;;
15071;SDS011;7635;56.696;13.002;2022-08-19T06:42:27;16.35;;;11.55;;
15071;SDS011;7635;56.696;13.002;2022-08-19T06:44:54;18.25;;;11.25;;
15071;SDS011;7635;56.696;13.002;2022-08-19T06:47:21;16.83;;;11.05;;
15071;SDS011;7635;56.696;13.002;2022-08-19T06:49:48;16.02;;;10.65;;
15071;SDS011;7635;56.696;13.002;2022-08-19T06:52:14;12.63;;;10.05;;
15071;SDS011;7635;56.696;13.002;2022-08-19T06:54:41;13.98;;;9.55;;
15071;SDS011;7635;56.696;13.002;2022-08-19T06:57:08;16.17;;;10.15;;
15071;SDS011;7635;56.696;13.002;2022-08-19T06:59:39;14.25;;;9.43;;
15071;SDS011;7635;56.696;13.002;2022-08-19T07:02:06;13.68;;;10.23;;
15071;SDS011;7635;56.696;13.002;2022-08-19T07:04:34;16.20;;;11.30;;
15071;SDS011;7635;56.696;13.002;2022-08-19T07:07:04;15.60;;;10.80;;
15071;SDS011;7635;56.696;13.002;2022-08-19T07:09:35;15.57;;;10.23;;
15071;SDS011;7635;56.696;13.002;2022-08-19T07:12:03;13.35;;;10.10;;
15071;SDS011;7635;56.696;13.002;2022-08-19T07:14:31;13.75;;;9.63;;
15071;SDS011;7635;56.696;13.002;2022-08-19T07:17:04;18.40;;;11.10;;
15071;SDS011;7635;56.696;13.002;2022-08-19T07:19:32;14.82;;;10.00;;
15071;SDS011;7635;56.696;13.002;2022-08-19T07:22:01;15.27;;;10.63;;
15071;SDS011;7635;56.696;13.002;2022-08-19T07:24:29;15.45;;;10.18;;
15071;SDS011;7635;56.696;13.002;2022-08-19T07:26:57;14.55;;;10.02;;
15071;SDS011;7635;56.696;13.002;2022-08-19T07:29:28;15.13;;;10.57;;
15071;SDS011;7635;56.696;13.002;2022-08-19T07:31:58;13.40;;;10.40;;
15071;SDS011;7635;56.696;13.002;2022-08-19T07:34:27;17.10;;;11.07;;
15071;SDS011;7635;56.696;13.002;2022-08-19T07:36:55;14.40;;;10.63;;
15071;SDS011;7635;56.696;13.002;2022-08-19T07:39:23;13.88;;;10.98;;
15071;SDS011;7635;56.696;13.002;2022-08-19T07:41:52;13.55;;;9.88;;
15071;SDS011;7635;56.696;13.002;2022-08-19T07:44:20;14.13;;;10.25;;
15071;SDS011;7635;56.696;13.002;2022-08-19T07:46:49;15.13;;;10.02;;
15071;SDS011;7635;56.696;13.002;2022-08-19T07:49:17;14.93;;;10.63;;
15071;SDS011;7635;56.696;13.002;2022-08-19T07:51:46;15.55;;;10.88;;
15071;SDS011;7635;56.696;13.002;2022-08-19T07:54:15;14.88;;;10.80;;
15071;SDS011;7635;56.696;13.002;2022-08-19T07:56:43;11.95;;;9.57;;
15071;SDS011;7635;56.696;13.002;2022-08-19T07:59:09;13.70;;;10.02;;
15071;SDS011;7635;56.696;13.002;2022-08-19T08:01:37;12.25;;;10.07;;
15071;SDS011;7635;56.696;13.002;2022-08-19T08:04:05;10.95;;;9.27;;
15071;SDS011;7635;56.696;13.002;2022-08-19T08:06:51;11.85;;;8.90;;
15071;SDS011;7635;56.696;13.002;2022-08-19T08:09:37;14.32;;;8.70;;
15071;SDS011;7635;56.696;13.002;2022-08-19T08:12:07;13.07;;;9.75;;
15071;SDS011;7635;56.696;13.002;2022-08-19T08:14:36;10.70;;;9.02;;
15071;SDS011;7635;56.696;13.002;2022-08-19T08:17:06;11.30;;;8.38;;
15071;SDS011;7635;56.696;13.002;2022-08-19T08:19:34;11.40;;;9.05;;
15071;SDS011;7635;56.696;13.002;2022-08-19T08:22:03;10.10;;;8.65;;
15071;SDS011;7635;56.696;13.002;2022-08-19T08:24:31;10.90;;;8.15;;
15071;SDS011;7635;56.696;13.002;2022-08-19T08:27:00;9.73;;;8.43;;
15071;SDS011;7635;56.696;13.002;2022-08-19T08:29:29;10.80;;;8.20;;
15071;SDS011;7635;56.696;13.002;2022-08-19T08:31:56;10.95;;;9.30;;
15071;SDS011;7635;56.696;13.002;2022-08-19T08:34:23;12.82;;;9.60;;
15071;SDS011;7635;56.696;13.002;2022-08-19T08:36:50;14.85;;;10.70;;
15071;SDS011;7635;56.696;13.002;2022-08-19T08:39:19;12.43;;;9.27;;
15071;SDS011;7635;56.696;13.002;2022-08-19T08:41:49;12.70;;;10.20;;
15071;SDS011;7635;56.696;13.002;2022-08-19T08:44:20;11.27;;;9.73;;
15071;SDS011;7635;56.696;13.002;2022-08-19T08:46:50;15.02;;;11.07;;
15071;SDS011;7635;56.696;13.002;2022-08-19T08:49:26;16.05;;;10.20;;
15071;SDS011;7635;56.696;13.002;2022-08-19T08:52:00;11.48;;;9.10;;
15071;SDS011;7635;56.696;13.002;2022-08-19T08:54:34;13.75;;;9.18;;
15071;SDS011;7635;56.696;13.002;2022-08-19T08:57:09;13.95;;;10.30;;
15071;SDS011;7635;56.696;13.002;2022-08-19T08:59:39;15.02;;;9.55;;
15071;SDS011;7635;56.696;13.002;2022-08-19T09:02:07;11.73;;;8.82;;
15071;SDS011;7635;56.696;13.002;2022-08-19T09:04:34;13.32;;;9.68;;
15071;SDS011;7635;56.696;13.002;2022-08-19T09:07:08;12.98;;;10.15;;
15071;SDS011;7635;56.696;13.002;2022-08-19T09:09:50;13.38;;;9.23;;
15071;SDS011;7635;56.696;13.002;2022-08-19T09:12:21;13.95;;;10.60;;
15071;SDS011;7635;56.696;13.002;2022-08-19T09:14:57;13.05;;;10.00;;
15071;SDS011;7635;56.696;13.002;2022-08-19T09:17:29;14.27;;;11.00;;
15071;SDS011;7635;56.696;13.002;2022-08-19T09:19:59;13.48;;;9.95;;
15071;SDS011;7635;56.696;13.002;2022-08-19T09:22:29;12.65;;;10.02;;
15071;SDS011;7635;56.696;13.002;2022-08-19T09:24:58;12.50;;;10.02;;
15071;SDS011;7635;56.696;13.002;2022-08-19T09:27:25;12.63;;;10.02;;
15071;SDS011;7635;56.696;13.002;2022-08-19T09:29:53;13.98;;;9.38;;
15071;SDS011;7635;56.696;13.002;2022-08-19T09:32:20;14.43;;;10.15;;
15071;SDS011;7635;56.696;13.002;2022-08-19T09:34:48;16.73;;;11.00;;
15071;SDS011;7635;56.696;13.002;2022-08-19T09:37:15;12.23;;;9.75;;
15071;SDS011;7635;56.696;13.002;2022-08-19T09:39:42;12.60;;;9.43;;
15071;SDS011;7635;56.696;13.002;2022-08-19T09:42:10;12.38;;;10.10;;
15071;SDS011;7635;56.696;13.002;2022-08-19T09:44:38;14.57;;;10.02;;
15071;SDS011;7635;56.696;13.002;2022-08-19T09:47:06;15.27;;;11.18;;
15071;SDS011;7635;56.696;13.002;2022-08-19T09:49:34;12.43;;;9.02;;
15071;SDS011;7635;56.696;13.002;2022-08-19T09:52:02;14.90;;;11.20;;
15071;SDS011;7635;56.696;13.002;2022-08-19T09:54:29;14.35;;;10.05;;
15071;SDS011;7635;56.696;13.002;2022-08-19T09:56:57;14.10;;;9.73;;
15071;SDS011;7635;56.696;13.002;2022-08-19T09:59:27;13.02;;;10.07;;
15071;SDS011;7635;56.696;13.002;2022-08-19T10:01:55;13.65;;;10.00;;
15071;SDS011;7635;56.696;13.002;2022-08-19T10:04:22;12.80;;;10.30;;
15071;SDS011;7635;56.696;13.002;2022-08-19T10:07:09;15.55;;;10.98;;
15071;SDS011;7635;56.696;13.002;2022-08-19T10:09:36;12.00;;;9.75;;
15071;SDS011;7635;56.696;13.002;2022-08-19T10:12:03;10.95;;;9.25;;
15071;SDS011;7635;56.696;13.002;2022-08-19T10:14:32;10.60;;;9.15;;
15071;SDS011;7635;56.696;13.002;2022-08-19T10:16:59;12.23;;;9.75;;
15071;SDS011;7635;56.696;13.002;2022-08-19T10:19:27;12.57;;;10.40;;
15071;SDS011;7635;56.696;13.002;2022-08-19T10:21:57;11.77;;;8.38;;
15071;SDS011;7635;56.696;13.002;2022-08-19T10:24:24;11.95;;;8.93;;
15071;SDS011;7635;56.696;13.002;2022-08-19T10:26:52;11.23;;;8.73;;
15071;SDS011;7635;56.696;13.002;2022-08-19T10:29:19;11.82;;;8.90;;
15071;SDS011;7635;56.696;13.002;2022-08-19T10:31:47;9.23;;;7.95;;
15071;SDS011;7635;56.696;13.002;2022-08-19T10:34:14;16.73;;;9.57;;
15071;SDS011;7635;56.696;13.002;2022-08-19T10:36:41;11.18;;;8.90;;
15071;SDS011;7635;56.696;13.002;2022-08-19T10:39:09;8.98;;;8.00;;
15071;SDS011;7635;56.696;13.002;2022-08-19T10:41:38;9.95;;;8.10;;
15071;SDS011;7635;56.696;13.002;2022-08-19T10:44:09;9.27;;;8.18;;
15071;SDS011;7635;56.696;13.002;2022-08-19T10:46:38;11.50;;;8.75;;
15071;SDS011;7635;56.696;13.002;2022-08-19T10:49:09;11.40;;;8.90;;
15071;SDS011;7635;56.696;13.002;2022-08-19T10:51:37;9.88;;;8.07;;
15071;SDS011;7635;56.696;13.002;2022-08-19T10:54:21;12.68;;;8.65;;
15071;SDS011;7635;56.696;13.002;2022-08-19T10:56:48;12.93;;;9.40;;
15071;SDS011;7635;56.696;13.002;2022-08-19T10:59:17;12.05;;;8.95;;
15071;SDS011;7635;56.696;13.002;2022-08-19T11:01:46;11.30;;;8.05;;
15071;SDS011;7635;56.696;13.002;2022-08-19T11:04:16;11.50;;;8.00;;
15071;SDS011;7635;56.696;13.002;2022-08-19T11:06:44;11.55;;;8.38;;
15071;SDS011;7635;56.696;13.002;2022-08-19T11:09:12;9.63;;;7.50;;
15071;SDS011;7635;56.696;13.002;2022-08-19T11:11:40;10.50;;;7.88;;
15071;SDS011;7635;56.696;13.002;2022-08-19T11:14:07;8.90;;;7.53;;
15071;SDS011;7635;56.696;13.002;2022-08-19T11:16:36;8.32;;;7.13;;
15071;SDS011;7635;56.696;13.002;2022-08-19T11:19:04;9.23;;;7.78;;
15071;SDS011;7635;56.696;13.002;2022-08-19T11:21:34;10.45;;;7.80;;
15071;SDS011;7635;56.696;13.002;2022-08-19T11:24:03;11.40;;;7.75;;
15071;SDS011;7635;56.696;13.002;2022-08-19T11:26:33;9.15;;;7.35;;
15071;SDS011;7635;56.696;13.002;2022-08-19T11:29:02;9.13;;;7.43;;
15071;SDS011;7635;56.696;13.002;2022-08-19T11:31:32;12.10;;;8.80;;
15071;SDS011;7635;56.696;13.002;2022-08-19T11:34:02;8.85;;;7.47;;
15071;SDS011;7635;56.696;13.002;2022-08-19T11:36:31;9.70;;;8.02;;
15071;SDS011;7635;56.696;13.002;2022-08-19T11:39:00;10.65;;;7.95;;
15071;SDS011;7635;56.696;13.002;2022-08-19T11:41:30;9.52;;;7.03;;
15071;SDS011;7635;56.696;13.002;2022-08-19T11:43:57;7.63;;;6.85;;
15071;SDS011;7635;56.696;13.002;2022-08-19T11:46:24;8.73;;;6.97;;
15071;SDS011;7635;56.696;13.002;2022-08-19T11:48:54;9.23;;;6.72;;
15071;SDS011;7635;56.696;13.002;2022-08-19T11:51:21;8.82;;;7.35;;
15071;SDS011;7635;56.696;13.002;2022-08-19T11:53:50;9.00;;;7.40;;
15071;SDS011;7635;56.696;13.002;2022-08-19T11:56:19;8.73;;;7.30;;
15071;SDS011;7635;56.696;13.002;2022-08-19T11:58:46;11.60;;;8.02;;
15071;SDS011;7635;56.696;13.002;2022-08-19T12:01:14;9.32;;;7.68;;
15071;SDS011;7635;56.696;13.002;2022-08-19T12:03:44;9.75;;;7.72;;
15071;SDS011;7635;56.696;13.002;2022-08-19T12:06:12;9.38;;;7.30;;
15071;SDS011;7635;56.696;13.002;2022-08-19T12:08:42;8.02;;;7.22;;
15071;SDS011;7635;56.696;13.002;2022-08-19T12:11:12;9.07;;;7.47;;
15071;SDS011;7635;56.696;13.002;2022-08-19T12:13:41;10.30;;;8.02;;
15071;SDS011;7635;56.696;13.002;2022-08-19T12:16:09;9.07;;;7.65;;
15071;SDS011;7635;56.696;13.002;2022-08-19T12:18:38;9.10;;;7.72;;
15071;SDS011;7635;56.696;13.002;2022-08-19T12:21:06;13.32;;;9.32;;
15071;SDS011;7635;56.696;13.002;2022-08-19T12:23:35;11.70;;;8.07;;
15071;SDS011;7635;56.696;13.002;2022-08-19T12:26:02;9.20;;;7.78;;
15071;SDS011;7635;56.696;13.002;2022-08-19T12:28:30;10.18;;;7.63;;
15071;SDS011;7635;56.696;13.002;2022-08-19T12:30:58;9.65;;;7.35;;
15071;SDS011;7635;56.696;13.002;2022-08-19T12:33:25;8.65;;;7.03;;
15071;SDS011;7635;56.696;13.002;2022-08-19T12:35:53;7.88;;;7.07;;
15071;SDS011;7635;56.696;13.002;2022-08-19T12:38:21;7.72;;;6.70;;
15071;SDS011;7635;56.696;13.002;2022-08-19T12:40:49;8.35;;;6.65;;
15071;SDS011;7635;56.696;13.002;2022-08-19T12:43:16;7.03;;;6.07;;
15071;SDS011;7635;56.696;13.002;2022-08-19T12:45:44;8.20;;;5.65;;
15071;SDS011;7635;56.696;13.002;2022-08-19T12:48:13;10.32;;;5.88;;
15071;SDS011;7635;56.696;13.002;2022-08-19T12:50:40;6.18;;;5.20;;
15071;SDS011;7635;56.696;13.002;2022-08-19T12:53:07;7.30;;;5.95;;
15071;SDS011;7635;56.696;13.002;2022-08-19T12:55:34;6.78;;;5.72;;
15071;SDS011;7635;56.696;13.002;2022-08-19T12:58:01;6.13;;;5.30;;
15071;SDS011;7635;56.696;13.002;2022-08-19T13:00:28;6.63;;;5.63;;
15071;SDS011;7635;56.696;13.002;2022-08-19T13:02:55;7.68;;;5.55;;
15071;SDS011;7635;56.696;13.002;2022-08-19T13:05:25;9.05;;;5.90;;
15071;SDS011;7635;56.696;13.002;2022-08-19T13:07:53;7.28;;;5.85;;
15071;SDS011;7635;56.696;13.002;2022-08-19T13:10:22;14.70;;;5.60;;
15071;SDS011;7635;56.696;13.002;2022-08-19T13:12:51;10.65;;;5.80;;
15071;SDS011;7635;56.696;13.002;2022-08-19T13:15:18;6.30;;;5.70;;
15071;SDS011;7635;56.696;13.002;2022-08-19T13:17:46;7.07;;;5.60;;
15071;SDS011;7635;56.696;13.002;2022-08-19T13:20:14;8.38;;;5.85;;
15071;SDS011;7635;56.696;13.002;2022-08-19T13:22:43;7.05;;;5.70;;
15071;SDS011;7635;56.696;13.002;2022-08-19T13:25:10;7.20;;;6.32;;
15071;SDS011;7635;56.696;13.002;2022-08-19T13:27:39;10.45;;;6.03;;
15071;SDS011;7635;56.696;13.002;2022-08-19T13:30:06;8.18;;;5.90;;
15071;SDS011;7635;56.696;13.002;2022-08-19T13:32:52;6.80;;;5.95;;
15071;SDS011;7635;56.696;13.002;2022-08-19T13:35:39;8.38;;;5.78;;
15071;SDS011;7635;56.696;13.002;2022-08-19T13:38:09;8.35;;;5.75;;
15071;SDS011;7635;56.696;13.002;2022-08-19T13:40:38;6.65;;;5.80;;
15071;SDS011;7635;56.696;13.002;2022-08-19T13:43:05;7.30;;;5.68;;
15071;SDS011;7635;56.696;13.002;2022-08-19T13:45:33;7.32;;;5.60;;
15071;SDS011;7635;56.696;13.002;2022-08-19T13:48:00;8.07;;;6.07;;
15071;SDS011;7635;56.696;13.002;2022-08-19T13:50:31;7.60;;;6.15;;
15071;SDS011;7635;56.696;13.002;2022-08-19T13:52:59;7.03;;;5.82;;
15071;SDS011;7635;56.696;13.002;2022-08-19T13:55:28;5.95;;;5.25;;
15071;SDS011;7635;56.696;13.002;2022-08-19T13:57:56;7.75;;;6.25;;
15071;SDS011;7635;56.696;13.002;2022-08-19T14:00:25;6.40;;;5.75;;
15071;SDS011;7635;56.696;13.002;2022-08-19T14:02:53;7.97;;;6.30;;
15071;SDS011;7635;56.696;13.002;2022-08-19T14:05:22;7.13;;;6.00;;
15071;SDS011;7635;56.696;13.002;2022-08-19T14:07:50;7.40;;;6.07;;
15071;SDS011;7635;56.696;13.002;2022-08-19T14:10:18;6.57;;;5.68;;
15071;SDS011;7635;56.696;13.002;2022-08-19T14:12:47;7.05;;;6.10;;
15071;SDS011;7635;56.696;13.002;2022-08-19T14:15:14;6.95;;;5.88;;
15071;SDS011;7635;56.696;13.002;2022-08-19T14:17:42;7.97;;;6.50;;
15071;SDS011;7635;56.696;13.002;2022-08-19T14:20:12;7.00;;;6.28;;
15071;SDS011;7635;56.696;13.002;2022-08-19T14:22:41;7.47;;;6.50;;
15071;SDS011;7635;56.696;13.002;2022-08-19T14:25:10;7.95;;;6.13;;
15071;SDS011;7635;56.696;13.002;2022-08-19T14:27:39;7.05;;;5.88;;
15071;SDS011;7635;56.696;13.002;2022-08-19T14:30:10;9.18;;;5.85;;
15071;SDS011;7635;56.696;13.002;2022-08-19T14:32:39;9.27;;;6.32;;
15071;SDS011;7635;56.696;13.002;2022-08-19T14:35:08;7.72;;;6.03;;
15071;SDS011;7635;56.696;13.002;2022-08-19T14:37:37;7.13;;;5.90;;
15071;SDS011;7635;56.696;13.002;2022-08-19T14:40:05;9.30;;;5.88;;
15071;SDS011;7635;56.696;13.002;2022-08-19T14:42:33;8.50;;;6.63;;
15071;SDS011;7635;56.696;13.002;2022-08-19T14:45:00;7.65;;;6.13;;